sensor_id;sensor_type;location;lat;lon;timestamp;P1;durP1;ratioP1;P2;durP2;ratioP2
37701;SDS011;23548;51.196;6.838;2023-07-30T00:02:18;8.20;;;4.10;;
37701;SDS011;23548;51.196;6.838;2023-07-30T00:04:44;9.20;;;4.05;;
37701;SDS011;23548;51.196;6.838;2023-07-30T00:07:10;9.30;;;4.38;;
37701;SDS011;23548;51.196;6.838;2023-07-30T00:09:37;10.02;;;4.47;;
37701;SDS011;23548;51.196;6.838;2023-07-30T00:12:06;8.65;;;4.30;;
37701;SDS011;23548;51.196;6.838;2023-07-30T00:14:33;6.57;;;3.58;;
37701;SDS011;23548;51.196;6.838;2023-07-30T00:16:59;9.32;;;3.85;;
37701;SDS011;23548;51.196;6.838;2023-07-30T00:19:25;8.80;;;4.18;;
37701;SDS011;23548;51.196;6.838;2023-07-30T00:21:51;9.18;;;4.57;;
37701;SDS011;23548;51.196;6.838;2023-07-30T00:24:17;9.52;;;4.47;;
37701;SDS011;23548;51.196;6.838;2023-07-30T00:26:43;20.20;;;5.18;;
37701;SDS011;23548;51.196;6.838;2023-07-30T00:29:09;9.02;;;4.80;;
37701;SDS011;23548;51.196;6.838;2023-07-30T00:31:34;10.07;;;4.32;;
37701;SDS011;23548;51.196;6.838;2023-07-30T00:34:00;7.22;;;4.90;;
37701;SDS011;23548;51.196;6.838;2023-07-30T00:36:26;12.07;;;4.97;;
37701;SDS011;23548;51.196;6.838;2023-07-30T00:38:52;12.90;;;5.28;;
37701;SDS011;23548;51.196;6.838;2023-07-30T00:41:18;12.02;;;5.93;;
37701;SDS011;23548;51.196;6.838;2023-07-30T00:43:44;11.73;;;5.10;;
37701;SDS011;23548;51.196;6.838;2023-07-30T00:46:10;12.40;;;4.50;;
37701;SDS011;23548;51.196;6.838;2023-07-30T00:48:37;12.85;;;4.88;;
37701;SDS011;23548;51.196;6.838;2023-07-30T00:51:02;16.95;;;5.20;;
37701;SDS011;23548;51.196;6.838;2023-07-30T00:53:29;9.43;;;4.45;;
37701;SDS011;23548;51.196;6.838;2023-07-30T00:55:56;12.68;;;5.75;;
37701;SDS011;23548;51.196;6.838;2023-07-30T00:58:22;13.13;;;5.43;;
37701;SDS011;23548;51.196;6.838;2023-07-30T01:00:49;16.85;;;5.25;;
37701;SDS011;23548;51.196;6.838;2023-07-30T01:03:18;11.32;;;5.10;;
37701;SDS011;23548;51.196;6.838;2023-07-30T01:05:44;11.60;;;5.25;;
37701;SDS011;23548;51.196;6.838;2023-07-30T01:08:10;10.27;;;5.47;;
37701;SDS011;23548;51.196;6.838;2023-07-30T01:10:36;12.30;;;5.68;;
37701;SDS011;23548;51.196;6.838;2023-07-30T01:13:08;17.42;;;6.35;;
37701;SDS011;23548;51.196;6.838;2023-07-30T01:15:35;16.77;;;6.68;;
37701;SDS011;23548;51.196;6.838;2023-07-30T01:18:02;11.52;;;5.60;;
37701;SDS011;23548;51.196;6.838;2023-07-30T01:20:31;12.77;;;5.45;;
37701;SDS011;23548;51.196;6.838;2023-07-30T01:23:00;12.00;;;5.50;;
37701;SDS011;23548;51.196;6.838;2023-07-30T01:25:29;14.15;;;6.18;;
37701;SDS011;23548;51.196;6.838;2023-07-30T01:28:00;9.30;;;5.22;;
37701;SDS011;23548;51.196;6.838;2023-07-30T01:30:35;9.15;;;5.20;;
37701;SDS011;23548;51.196;6.838;2023-07-30T01:33:05;12.27;;;4.88;;
37701;SDS011;23548;51.196;6.838;2023-07-30T01:35:32;19.40;;;5.47;;
37701;SDS011;23548;51.196;6.838;2023-07-30T01:41:22;12.55;;;5.45;;
37701;SDS011;23548;51.196;6.838;2023-07-30T01:43:50;9.82;;;5.13;;
37701;SDS011;23548;51.196;6.838;2023-07-30T01:46:15;10.15;;;4.95;;
37701;SDS011;23548;51.196;6.838;2023-07-30T01:48:41;7.25;;;4.28;;
37701;SDS011;23548;51.196;6.838;2023-07-30T01:51:07;13.00;;;4.97;;
37701;SDS011;23548;51.196;6.838;2023-07-30T01:53:33;11.85;;;4.68;;
37701;SDS011;23548;51.196;6.838;2023-07-30T01:55:58;14.40;;;4.88;;
37701;SDS011;23548;51.196;6.838;2023-07-30T01:58:24;11.57;;;4.63;;
37701;SDS011;23548;51.196;6.838;2023-07-30T02:00:50;11.30;;;4.90;;
37701;SDS011;23548;51.196;6.838;2023-07-30T02:03:15;9.85;;;4.63;;
37701;SDS011;23548;51.196;6.838;2023-07-30T02:05:41;9.90;;;4.78;;
37701;SDS011;23548;51.196;6.838;2023-07-30T02:08:07;9.43;;;4.70;;
37701;SDS011;23548;51.196;6.838;2023-07-30T02:10:33;14.18;;;5.00;;
37701;SDS011;23548;51.196;6.838;2023-07-30T02:12:58;9.35;;;4.70;;
37701;SDS011;23548;51.196;6.838;2023-07-30T02:15:24;13.57;;;5.30;;
37701;SDS011;23548;51.196;6.838;2023-07-30T02:17:50;10.45;;;4.90;;
37701;SDS011;23548;51.196;6.838;2023-07-30T02:20:16;11.23;;;5.35;;
37701;SDS011;23548;51.196;6.838;2023-07-30T02:22:41;14.63;;;5.10;;
37701;SDS011;23548;51.196;6.838;2023-07-30T02:25:07;8.48;;;5.05;;
37701;SDS011;23548;51.196;6.838;2023-07-30T02:27:33;14.48;;;4.97;;
37701;SDS011;23548;51.196;6.838;2023-07-30T02:29:59;11.95;;;5.00;;
37701;SDS011;23548;51.196;6.838;2023-07-30T02:32:25;13.27;;;5.20;;
37701;SDS011;23548;51.196;6.838;2023-07-30T02:34:50;14.63;;;5.57;;
37701;SDS011;23548;51.196;6.838;2023-07-30T02:37:16;12.15;;;5.28;;
37701;SDS011;23548;51.196;6.838;2023-07-30T02:39:44;9.65;;;5.43;;
37701;SDS011;23548;51.196;6.838;2023-07-30T02:42:10;15.43;;;5.63;;
37701;SDS011;23548;51.196;6.838;2023-07-30T02:44:36;12.35;;;5.25;;
37701;SDS011;23548;51.196;6.838;2023-07-30T02:47:01;13.00;;;5.22;;
37701;SDS011;23548;51.196;6.838;2023-07-30T02:49:27;14.95;;;5.20;;
37701;SDS011;23548;51.196;6.838;2023-07-30T02:51:53;10.70;;;5.22;;
37701;SDS011;23548;51.196;6.838;2023-07-30T02:54:18;16.02;;;5.78;;
37701;SDS011;23548;51.196;6.838;2023-07-30T02:56:47;12.07;;;5.20;;
37701;SDS011;23548;51.196;6.838;2023-07-30T02:59:13;13.27;;;5.40;;
37701;SDS011;23548;51.196;6.838;2023-07-30T03:01:39;18.75;;;5.88;;
37701;SDS011;23548;51.196;6.838;2023-07-30T03:04:04;14.32;;;5.13;;
37701;SDS011;23548;51.196;6.838;2023-07-30T03:06:30;13.80;;;4.75;;
37701;SDS011;23548;51.196;6.838;2023-07-30T03:08:56;15.65;;;5.22;;
37701;SDS011;23548;51.196;6.838;2023-07-30T03:11:22;16.25;;;4.90;;
37701;SDS011;23548;51.196;6.838;2023-07-30T03:13:48;14.10;;;5.30;;
37701;SDS011;23548;51.196;6.838;2023-07-30T03:16:14;15.75;;;4.68;;
37701;SDS011;23548;51.196;6.838;2023-07-30T03:18:40;15.77;;;4.80;;
37701;SDS011;23548;51.196;6.838;2023-07-30T03:21:05;12.77;;;4.80;;
37701;SDS011;23548;51.196;6.838;2023-07-30T03:23:31;16.13;;;5.45;;
37701;SDS011;23548;51.196;6.838;2023-07-30T03:25:57;16.27;;;4.93;;
37701;SDS011;23548;51.196;6.838;2023-07-30T03:28:25;15.95;;;5.35;;
37701;SDS011;23548;51.196;6.838;2023-07-30T03:30:51;12.15;;;4.53;;
37701;SDS011;23548;51.196;6.838;2023-07-30T03:33:17;11.00;;;5.03;;
37701;SDS011;23548;51.196;6.838;2023-07-30T03:35:42;11.50;;;4.60;;
37701;SDS011;23548;51.196;6.838;2023-07-30T03:38:08;13.43;;;4.90;;
37701;SDS011;23548;51.196;6.838;2023-07-30T03:40:34;10.73;;;4.93;;
37701;SDS011;23548;51.196;6.838;2023-07-30T03:43:00;14.68;;;4.97;;
37701;SDS011;23548;51.196;6.838;2023-07-30T03:45:25;12.77;;;4.70;;
37701;SDS011;23548;51.196;6.838;2023-07-30T03:47:51;12.70;;;4.88;;
37701;SDS011;23548;51.196;6.838;2023-07-30T03:50:17;12.38;;;5.20;;
37701;SDS011;23548;51.196;6.838;2023-07-30T03:52:43;13.93;;;4.90;;
37701;SDS011;23548;51.196;6.838;2023-07-30T03:55:08;11.88;;;4.50;;
37701;SDS011;23548;51.196;6.838;2023-07-30T03:57:34;12.65;;;4.90;;
37701;SDS011;23548;51.196;6.838;2023-07-30T04:00:00;15.10;;;4.53;;
37701;SDS011;23548;51.196;6.838;2023-07-30T04:02:26;13.07;;;4.47;;
37701;SDS011;23548;51.196;6.838;2023-07-30T04:04:52;13.50;;;4.35;;
37701;SDS011;23548;51.196;6.838;2023-07-30T04:07:17;14.07;;;4.50;;
37701;SDS011;23548;51.196;6.838;2023-07-30T04:09:43;12.90;;;4.40;;
37701;SDS011;23548;51.196;6.838;2023-07-30T04:12:09;12.75;;;4.38;;
37701;SDS011;23548;51.196;6.838;2023-07-30T04:14:35;13.07;;;4.28;;
37701;SDS011;23548;51.196;6.838;2023-07-30T04:17:01;12.25;;;3.90;;
37701;SDS011;23548;51.196;6.838;2023-07-30T04:19:26;13.82;;;4.38;;
37701;SDS011;23548;51.196;6.838;2023-07-30T04:21:52;15.70;;;4.40;;
37701;SDS011;23548;51.196;6.838;2023-07-30T04:24:18;10.90;;;3.75;;
37701;SDS011;23548;51.196;6.838;2023-07-30T04:26:44;13.27;;;3.53;;
37701;SDS011;23548;51.196;6.838;2023-07-30T04:29:09;12.75;;;4.30;;
37701;SDS011;23548;51.196;6.838;2023-07-30T04:31:35;10.73;;;4.35;;
37701;SDS011;23548;51.196;6.838;2023-07-30T04:34:01;15.20;;;4.90;;
37701;SDS011;23548;51.196;6.838;2023-07-30T04:36:27;14.35;;;4.40;;
37701;SDS011;23548;51.196;6.838;2023-07-30T04:38:53;9.10;;;3.83;;
37701;SDS011;23548;51.196;6.838;2023-07-30T04:41:19;14.63;;;3.70;;
37701;SDS011;23548;51.196;6.838;2023-07-30T04:43:45;8.65;;;3.00;;
37701;SDS011;23548;51.196;6.838;2023-07-30T04:46:11;9.80;;;3.22;;
37701;SDS011;23548;51.196;6.838;2023-07-30T04:48:37;10.60;;;2.95;;
37701;SDS011;23548;51.196;6.838;2023-07-30T04:51:02;8.65;;;3.38;;
37701;SDS011;23548;51.196;6.838;2023-07-30T04:53:28;8.25;;;3.03;;
37701;SDS011;23548;51.196;6.838;2023-07-30T04:55:57;9.35;;;3.22;;
37701;SDS011;23548;51.196;6.838;2023-07-30T04:58:23;8.90;;;3.40;;
37701;SDS011;23548;51.196;6.838;2023-07-30T05:00:49;10.82;;;3.42;;
37701;SDS011;23548;51.196;6.838;2023-07-30T05:03:15;6.38;;;2.70;;
37701;SDS011;23548;51.196;6.838;2023-07-30T05:05:41;7.97;;;2.85;;
37701;SDS011;23548;51.196;6.838;2023-07-30T05:08:07;13.90;;;2.65;;
37701;SDS011;23548;51.196;6.838;2023-07-30T05:10:33;6.68;;;2.55;;
37701;SDS011;23548;51.196;6.838;2023-07-30T05:12:59;7.18;;;2.70;;
37701;SDS011;23548;51.196;6.838;2023-07-30T05:15:25;8.90;;;2.22;;
37701;SDS011;23548;51.196;6.838;2023-07-30T05:17:51;12.20;;;2.50;;
37701;SDS011;23548;51.196;6.838;2023-07-30T05:20:17;9.15;;;3.10;;
37701;SDS011;23548;51.196;6.838;2023-07-30T05:22:42;9.73;;;2.67;;
37701;SDS011;23548;51.196;6.838;2023-07-30T05:25:08;11.73;;;2.67;;
37701;SDS011;23548;51.196;6.838;2023-07-30T05:27:35;8.52;;;2.20;;
37701;SDS011;23548;51.196;6.838;2023-07-30T05:30:01;6.03;;;2.10;;
37701;SDS011;23548;51.196;6.838;2023-07-30T05:32:27;13.98;;;2.65;;
37701;SDS011;23548;51.196;6.838;2023-07-30T05:34:53;12.27;;;2.85;;
37701;SDS011;23548;51.196;6.838;2023-07-30T05:37:18;9.60;;;2.50;;
37701;SDS011;23548;51.196;6.838;2023-07-30T05:39:44;9.80;;;2.30;;
37701;SDS011;23548;51.196;6.838;2023-07-30T05:42:10;9.68;;;2.47;;
37701;SDS011;23548;51.196;6.838;2023-07-30T05:44:36;6.82;;;2.17;;
37701;SDS011;23548;51.196;6.838;2023-07-30T05:47:01;10.55;;;2.63;;
37701;SDS011;23548;51.196;6.838;2023-07-30T05:49:27;13.80;;;2.28;;
37701;SDS011;23548;51.196;6.838;2023-07-30T05:51:53;11.80;;;2.58;;
37701;SDS011;23548;51.196;6.838;2023-07-30T05:54:19;9.57;;;2.50;;
37701;SDS011;23548;51.196;6.838;2023-07-30T05:56:44;8.80;;;2.88;;
37701;SDS011;23548;51.196;6.838;2023-07-30T05:59:10;9.60;;;2.75;;
37701;SDS011;23548;51.196;6.838;2023-07-30T06:01:36;10.50;;;2.88;;
37701;SDS011;23548;51.196;6.838;2023-07-30T06:04:01;14.15;;;2.45;;
37701;SDS011;23548;51.196;6.838;2023-07-30T06:06:28;13.55;;;2.58;;
37701;SDS011;23548;51.196;6.838;2023-07-30T06:08:54;13.52;;;3.15;;
37701;SDS011;23548;51.196;6.838;2023-07-30T06:11:20;11.38;;;3.00;;
37701;SDS011;23548;51.196;6.838;2023-07-30T06:13:49;11.52;;;2.88;;
37701;SDS011;23548;51.196;6.838;2023-07-30T06:16:16;8.88;;;2.70;;
37701;SDS011;23548;51.196;6.838;2023-07-30T06:18:43;9.60;;;2.30;;
37701;SDS011;23548;51.196;6.838;2023-07-30T06:21:08;10.55;;;2.28;;
37701;SDS011;23548;51.196;6.838;2023-07-30T06:23:34;13.65;;;2.90;;
37701;SDS011;23548;51.196;6.838;2023-07-30T06:26:00;9.48;;;2.50;;
37701;SDS011;23548;51.196;6.838;2023-07-30T06:28:26;8.68;;;2.67;;
37701;SDS011;23548;51.196;6.838;2023-07-30T06:30:52;5.53;;;1.88;;
37701;SDS011;23548;51.196;6.838;2023-07-30T06:33:18;7.35;;;2.38;;
37701;SDS011;23548;51.196;6.838;2023-07-30T06:35:44;9.75;;;2.40;;
37701;SDS011;23548;51.196;6.838;2023-07-30T06:38:09;8.85;;;2.00;;
37701;SDS011;23548;51.196;6.838;2023-07-30T06:40:35;7.85;;;2.10;;
37701;SDS011;23548;51.196;6.838;2023-07-30T06:43:01;8.38;;;2.00;;
37701;SDS011;23548;51.196;6.838;2023-07-30T06:45:26;7.35;;;2.05;;
37701;SDS011;23548;51.196;6.838;2023-07-30T06:47:53;13.27;;;2.53;;
37701;SDS011;23548;51.196;6.838;2023-07-30T06:50:18;10.65;;;2.90;;
37701;SDS011;23548;51.196;6.838;2023-07-30T06:52:44;9.32;;;2.30;;
37701;SDS011;23548;51.196;6.838;2023-07-30T06:55:10;10.18;;;2.10;;
37701;SDS011;23548;51.196;6.838;2023-07-30T06:57:36;8.35;;;2.25;;
37701;SDS011;23548;51.196;6.838;2023-07-30T07:00:02;7.57;;;2.60;;
37701;SDS011;23548;51.196;6.838;2023-07-30T07:02:29;14.10;;;3.22;;
37701;SDS011;23548;51.196;6.838;2023-07-30T07:04:55;10.15;;;2.20;;
37701;SDS011;23548;51.196;6.838;2023-07-30T07:07:21;8.35;;;2.30;;
37701;SDS011;23548;51.196;6.838;2023-07-30T07:09:47;8.15;;;2.53;;
37701;SDS011;23548;51.196;6.838;2023-07-30T07:12:12;6.70;;;2.28;;
37701;SDS011;23548;51.196;6.838;2023-07-30T07:14:38;9.68;;;2.60;;
37701;SDS011;23548;51.196;6.838;2023-07-30T07:17:04;11.18;;;2.97;;
37701;SDS011;23548;51.196;6.838;2023-07-30T07:19:30;13.43;;;2.95;;
37701;SDS011;23548;51.196;6.838;2023-07-30T07:21:56;12.85;;;2.67;;
37701;SDS011;23548;51.196;6.838;2023-07-30T07:24:22;14.02;;;2.92;;
37701;SDS011;23548;51.196;6.838;2023-07-30T07:26:48;9.45;;;2.55;;
37701;SDS011;23548;51.196;6.838;2023-07-30T07:29:14;6.75;;;3.00;;
37701;SDS011;23548;51.196;6.838;2023-07-30T07:31:39;7.80;;;3.00;;
37701;SDS011;23548;51.196;6.838;2023-07-30T07:34:05;8.18;;;2.70;;
37701;SDS011;23548;51.196;6.838;2023-07-30T07:36:31;10.05;;;2.78;;
37701;SDS011;23548;51.196;6.838;2023-07-30T07:38:56;10.32;;;2.88;;
37701;SDS011;23548;51.196;6.838;2023-07-30T07:41:22;18.42;;;3.72;;
37701;SDS011;23548;51.196;6.838;2023-07-30T07:43:48;14.82;;;3.58;;
37701;SDS011;23548;51.196;6.838;2023-07-30T07:46:14;12.63;;;3.38;;
37701;SDS011;23548;51.196;6.838;2023-07-30T07:48:40;12.73;;;3.30;;
37701;SDS011;23548;51.196;6.838;2023-07-30T07:51:08;11.05;;;3.70;;
37701;SDS011;23548;51.196;6.838;2023-07-30T07:53:34;12.65;;;3.47;;
37701;SDS011;23548;51.196;6.838;2023-07-30T07:56:00;9.65;;;3.03;;
37701;SDS011;23548;51.196;6.838;2023-07-30T07:58:26;11.82;;;2.90;;
37701;SDS011;23548;51.196;6.838;2023-07-30T08:00:57;10.15;;;3.08;;
37701;SDS011;23548;51.196;6.838;2023-07-30T08:03:23;10.38;;;2.90;;
37701;SDS011;23548;51.196;6.838;2023-07-30T08:05:51;10.88;;;3.03;;
37701;SDS011;23548;51.196;6.838;2023-07-30T08:08:17;12.23;;;3.08;;
37701;SDS011;23548;51.196;6.838;2023-07-30T08:10:43;11.55;;;3.35;;
37701;SDS011;23548;51.196;6.838;2023-07-30T08:13:11;13.70;;;3.70;;
37701;SDS011;23548;51.196;6.838;2023-07-30T08:15:37;11.98;;;3.22;;
37701;SDS011;23548;51.196;6.838;2023-07-30T08:18:03;11.25;;;2.72;;
37701;SDS011;23548;51.196;6.838;2023-07-30T08:20:29;12.32;;;3.17;;
37701;SDS011;23548;51.196;6.838;2023-07-30T08:22:55;14.55;;;3.60;;
37701;SDS011;23548;51.196;6.838;2023-07-30T08:25:21;14.77;;;3.78;;
37701;SDS011;23548;51.196;6.838;2023-07-30T08:27:46;11.15;;;3.50;;
37701;SDS011;23548;51.196;6.838;2023-07-30T08:30:12;12.38;;;3.40;;
37701;SDS011;23548;51.196;6.838;2023-07-30T08:32:38;16.00;;;3.65;;
37701;SDS011;23548;51.196;6.838;2023-07-30T08:35:06;13.38;;;3.40;;
37701;SDS011;23548;51.196;6.838;2023-07-30T08:37:32;15.65;;;3.67;;
37701;SDS011;23548;51.196;6.838;2023-07-30T08:39:58;13.50;;;3.10;;
37701;SDS011;23548;51.196;6.838;2023-07-30T08:42:24;17.77;;;3.70;;
37701;SDS011;23548;51.196;6.838;2023-07-30T08:44:50;12.85;;;3.47;;
37701;SDS011;23548;51.196;6.838;2023-07-30T08:47:16;21.38;;;4.25;;
37701;SDS011;23548;51.196;6.838;2023-07-30T08:49:42;15.88;;;3.58;;
37701;SDS011;23548;51.196;6.838;2023-07-30T08:52:08;14.93;;;3.78;;
37701;SDS011;23548;51.196;6.838;2023-07-30T08:54:36;15.18;;;3.85;;
37701;SDS011;23548;51.196;6.838;2023-07-30T08:57:03;13.38;;;3.88;;
37701;SDS011;23548;51.196;6.838;2023-07-30T08:59:42;11.93;;;3.60;;
37701;SDS011;23548;51.196;6.838;2023-07-30T09:02:37;16.60;;;3.00;;
37701;SDS011;23548;51.196;6.838;2023-07-30T09:05:08;11.52;;;3.22;;
37701;SDS011;23548;51.196;6.838;2023-07-30T09:07:35;17.65;;;3.72;;
37701;SDS011;23548;51.196;6.838;2023-07-30T09:10:04;9.50;;;2.90;;
37701;SDS011;23548;51.196;6.838;2023-07-30T09:12:32;12.25;;;3.35;;
37701;SDS011;23548;51.196;6.838;2023-07-30T09:14:59;16.25;;;3.05;;
37701;SDS011;23548;51.196;6.838;2023-07-30T09:17:25;15.85;;;3.05;;
37701;SDS011;23548;51.196;6.838;2023-07-30T09:19:51;11.57;;;3.15;;
37701;SDS011;23548;51.196;6.838;2023-07-30T09:22:27;11.55;;;3.35;;
37701;SDS011;23548;51.196;6.838;2023-07-30T09:24:55;8.02;;;2.67;;
37701;SDS011;23548;51.196;6.838;2023-07-30T09:27:22;12.38;;;3.47;;
37701;SDS011;23548;51.196;6.838;2023-07-30T09:29:53;11.20;;;2.92;;
37701;SDS011;23548;51.196;6.838;2023-07-30T09:32:30;11.13;;;3.03;;
37701;SDS011;23548;51.196;6.838;2023-07-30T09:35:10;15.48;;;3.97;;
37701;SDS011;23548;51.196;6.838;2023-07-30T09:37:37;14.23;;;3.30;;
37701;SDS011;23548;51.196;6.838;2023-07-30T09:40:08;16.02;;;2.97;;
37701;SDS011;23548;51.196;6.838;2023-07-30T09:42:35;15.50;;;3.00;;
37701;SDS011;23548;51.196;6.838;2023-07-30T09:45:04;11.18;;;2.80;;
37701;SDS011;23548;51.196;6.838;2023-07-30T09:47:36;12.88;;;2.83;;
37701;SDS011;23548;51.196;6.838;2023-07-30T09:50:02;10.05;;;2.67;;
37701;SDS011;23548;51.196;6.838;2023-07-30T09:52:29;14.07;;;3.05;;
37701;SDS011;23548;51.196;6.838;2023-07-30T09:54:56;12.75;;;2.70;;
37701;SDS011;23548;51.196;6.838;2023-07-30T09:57:22;9.00;;;2.72;;
37701;SDS011;23548;51.196;6.838;2023-07-30T09:59:48;12.32;;;2.70;;
37701;SDS011;23548;51.196;6.838;2023-07-30T10:02:14;12.13;;;2.75;;
37701;SDS011;23548;51.196;6.838;2023-07-30T10:04:42;8.95;;;2.30;;
37701;SDS011;23548;51.196;6.838;2023-07-30T10:07:18;11.95;;;2.60;;
37701;SDS011;23548;51.196;6.838;2023-07-30T10:09:46;11.15;;;2.92;;
37701;SDS011;23548;51.196;6.838;2023-07-30T10:12:16;11.88;;;2.40;;
37701;SDS011;23548;51.196;6.838;2023-07-30T10:14:45;13.00;;;2.63;;
37701;SDS011;23548;51.196;6.838;2023-07-30T10:17:12;8.93;;;2.38;;
37701;SDS011;23548;51.196;6.838;2023-07-30T10:19:38;11.30;;;2.80;;
37701;SDS011;23548;51.196;6.838;2023-07-30T10:24:39;10.02;;;2.58;;
37701;SDS011;23548;51.196;6.838;2023-07-30T10:27:05;10.57;;;2.63;;
37701;SDS011;23548;51.196;6.838;2023-07-30T10:29:41;14.43;;;2.30;;
37701;SDS011;23548;51.196;6.838;2023-07-30T10:32:06;9.23;;;2.30;;
37701;SDS011;23548;51.196;6.838;2023-07-30T10:34:46;9.40;;;2.30;;
37701;SDS011;23548;51.196;6.838;2023-07-30T10:37:20;11.52;;;2.40;;
37701;SDS011;23548;51.196;6.838;2023-07-30T10:39:49;7.28;;;2.30;;
37701;SDS011;23548;51.196;6.838;2023-07-30T10:42:15;9.50;;;2.10;;
37701;SDS011;23548;51.196;6.838;2023-07-30T10:44:43;10.80;;;2.40;;
37701;SDS011;23548;51.196;6.838;2023-07-30T10:47:10;12.00;;;2.30;;
37701;SDS011;23548;51.196;6.838;2023-07-30T10:49:36;9.32;;;2.55;;
37701;SDS011;23548;51.196;6.838;2023-07-30T10:52:03;7.65;;;2.00;;
37701;SDS011;23548;51.196;6.838;2023-07-30T10:54:35;6.32;;;2.22;;
37701;SDS011;23548;51.196;6.838;2023-07-30T10:57:02;5.72;;;1.63;;
37701;SDS011;23548;51.196;6.838;2023-07-30T10:59:34;6.38;;;2.20;;
37701;SDS011;23548;51.196;6.838;2023-07-30T11:02:02;8.05;;;2.15;;
37701;SDS011;23548;51.196;6.838;2023-07-30T11:04:28;8.13;;;1.83;;
37701;SDS011;23548;51.196;6.838;2023-07-30T11:06:54;6.70;;;2.05;;
37701;SDS011;23548;51.196;6.838;2023-07-30T11:09:21;6.40;;;2.00;;
37701;SDS011;23548;51.196;6.838;2023-07-30T11:11:48;8.68;;;1.80;;
37701;SDS011;23548;51.196;6.838;2023-07-30T11:14:15;7.15;;;2.10;;
37701;SDS011;23548;51.196;6.838;2023-07-30T11:16:52;8.93;;;1.95;;
37701;SDS011;23548;51.196;6.838;2023-07-30T11:19:25;5.47;;;1.75;;
37701;SDS011;23548;51.196;6.838;2023-07-30T11:21:52;10.32;;;1.80;;
37701;SDS011;23548;51.196;6.838;2023-07-30T11:24:37;10.73;;;2.05;;
37701;SDS011;23548;51.196;6.838;2023-07-30T11:27:03;8.75;;;1.95;;
37701;SDS011;23548;51.196;6.838;2023-07-30T11:29:29;7.75;;;1.92;;
37701;SDS011;23548;51.196;6.838;2023-07-30T11:31:59;6.15;;;1.90;;
37701;SDS011;23548;51.196;6.838;2023-07-30T11:34:27;6.45;;;1.52;;
37701;SDS011;23548;51.196;6.838;2023-07-30T11:36:54;6.75;;;1.50;;
37701;SDS011;23548;51.196;6.838;2023-07-30T11:39:20;6.45;;;1.50;;
37701;SDS011;23548;51.196;6.838;2023-07-30T11:41:48;4.90;;;1.42;;
37701;SDS011;23548;51.196;6.838;2023-07-30T11:44:30;5.57;;;1.58;;
37701;SDS011;23548;51.196;6.838;2023-07-30T11:47:03;11.50;;;1.85;;
37701;SDS011;23548;51.196;6.838;2023-07-30T11:49:30;6.75;;;1.77;;
37701;SDS011;23548;51.196;6.838;2023-07-30T11:52:06;7.63;;;1.90;;
37701;SDS011;23548;51.196;6.838;2023-07-30T11:54:33;10.75;;;1.90;;
37701;SDS011;23548;51.196;6.838;2023-07-30T11:56:59;7.20;;;1.70;;
37701;SDS011;23548;51.196;6.838;2023-07-30T11:59:25;8.38;;;2.20;;
37701;SDS011;23548;51.196;6.838;2023-07-30T12:01:51;7.90;;;2.08;;
37701;SDS011;23548;51.196;6.838;2023-07-30T12:04:17;5.88;;;1.70;;
37701;SDS011;23548;51.196;6.838;2023-07-30T12:06:47;8.02;;;1.52;;
37701;SDS011;23548;51.196;6.838;2023-07-30T12:11:45;8.48;;;1.92;;
37701;SDS011;23548;51.196;6.838;2023-07-30T12:14:12;8.98;;;1.73;;
37701;SDS011;23548;51.196;6.838;2023-07-30T12:16:38;4.03;;;1.48;;
37701;SDS011;23548;51.196;6.838;2023-07-30T12:19:04;9.43;;;1.65;;
37701;SDS011;23548;51.196;6.838;2023-07-30T12:21:30;6.80;;;1.20;;
37701;SDS011;23548;51.196;6.838;2023-07-30T12:23:56;5.53;;;1.35;;
37701;SDS011;23548;51.196;6.838;2023-07-30T12:26:21;6.90;;;1.50;;
37701;SDS011;23548;51.196;6.838;2023-07-30T12:28:47;5.85;;;1.15;;
37701;SDS011;23548;51.196;6.838;2023-07-30T12:31:13;4.25;;;1.17;;
37701;SDS011;23548;51.196;6.838;2023-07-30T12:33:39;2.25;;;0.90;;
37701;SDS011;23548;51.196;6.838;2023-07-30T12:36:05;3.42;;;1.08;;
37701;SDS011;23548;51.196;6.838;2023-07-30T12:38:31;4.13;;;1.20;;
37701;SDS011;23548;51.196;6.838;2023-07-30T12:40:56;3.55;;;1.30;;
37701;SDS011;23548;51.196;6.838;2023-07-30T12:43:22;4.68;;;1.33;;
37701;SDS011;23548;51.196;6.838;2023-07-30T12:45:48;3.42;;;1.20;;
37701;SDS011;23548;51.196;6.838;2023-07-30T12:48:14;5.40;;;1.00;;
37701;SDS011;23548;51.196;6.838;2023-07-30T12:50:40;5.25;;;1.33;;
37701;SDS011;23548;51.196;6.838;2023-07-30T12:53:05;4.93;;;1.60;;
37701;SDS011;23548;51.196;6.838;2023-07-30T12:55:31;4.47;;;1.33;;
37701;SDS011;23548;51.196;6.838;2023-07-30T12:57:57;7.57;;;2.10;;
37701;SDS011;23548;51.196;6.838;2023-07-30T13:00:23;7.50;;;1.48;;
37701;SDS011;23548;51.196;6.838;2023-07-30T13:02:49;3.85;;;1.40;;
37701;SDS011;23548;51.196;6.838;2023-07-30T13:05:20;3.50;;;1.50;;
37701;SDS011;23548;51.196;6.838;2023-07-30T13:07:46;4.90;;;1.30;;
37701;SDS011;23548;51.196;6.838;2023-07-30T13:10:12;6.05;;;1.67;;
37701;SDS011;23548;51.196;6.838;2023-07-30T13:12:38;7.45;;;1.77;;
37701;SDS011;23548;51.196;6.838;2023-07-30T13:15:04;7.47;;;1.35;;
37701;SDS011;23548;51.196;6.838;2023-07-30T13:17:30;4.05;;;1.35;;
37701;SDS011;23548;51.196;6.838;2023-07-30T13:19:57;6.82;;;1.48;;
37701;SDS011;23548;51.196;6.838;2023-07-30T13:22:22;6.75;;;2.00;;
37701;SDS011;23548;51.196;6.838;2023-07-30T13:24:48;7.35;;;1.63;;
37701;SDS011;23548;51.196;6.838;2023-07-30T13:27:14;9.13;;;1.80;;
37701;SDS011;23548;51.196;6.838;2023-07-30T13:29:42;10.00;;;1.67;;
37701;SDS011;23548;51.196;6.838;2023-07-30T13:32:07;6.47;;;1.98;;
37701;SDS011;23548;51.196;6.838;2023-07-30T13:34:34;6.80;;;1.75;;
37701;SDS011;23548;51.196;6.838;2023-07-30T13:36:59;5.80;;;1.58;;
37701;SDS011;23548;51.196;6.838;2023-07-30T13:39:26;7.35;;;1.85;;
37701;SDS011;23548;51.196;6.838;2023-07-30T13:41:53;5.28;;;1.58;;
37701;SDS011;23548;51.196;6.838;2023-07-30T13:44:19;5.07;;;1.25;;
37701;SDS011;23548;51.196;6.838;2023-07-30T13:46:45;7.00;;;1.90;;
37701;SDS011;23548;51.196;6.838;2023-07-30T13:49:11;7.05;;;1.45;;
37701;SDS011;23548;51.196;6.838;2023-07-30T13:51:37;4.05;;;1.15;;
37701;SDS011;23548;51.196;6.838;2023-07-30T13:54:03;7.03;;;1.63;;
37701;SDS011;23548;51.196;6.838;2023-07-30T13:56:30;8.10;;;1.77;;
37701;SDS011;23548;51.196;6.838;2023-07-30T13:58:56;6.28;;;1.60;;
37701;SDS011;23548;51.196;6.838;2023-07-30T14:01:22;8.43;;;1.95;;
37701;SDS011;23548;51.196;6.838;2023-07-30T14:03:48;4.85;;;1.88;;
37701;SDS011;23548;51.196;6.838;2023-07-30T14:06:14;5.53;;;1.60;;
37701;SDS011;23548;51.196;6.838;2023-07-30T14:08:39;7.97;;;1.90;;
37701;SDS011;23548;51.196;6.838;2023-07-30T14:11:05;7.57;;;1.65;;
37701;SDS011;23548;51.196;6.838;2023-07-30T14:13:31;6.13;;;1.63;;
37701;SDS011;23548;51.196;6.838;2023-07-30T14:15:57;10.23;;;1.70;;
37701;SDS011;23548;51.196;6.838;2023-07-30T14:18:26;5.78;;;1.50;;
37701;SDS011;23548;51.196;6.838;2023-07-30T14:20:51;8.57;;;1.80;;
37701;SDS011;23548;51.196;6.838;2023-07-30T14:23:17;8.07;;;2.35;;
37701;SDS011;23548;51.196;6.838;2023-07-30T14:25:44;9.20;;;1.60;;
37701;SDS011;23548;51.196;6.838;2023-07-30T14:28:10;6.70;;;1.70;;
37701;SDS011;23548;51.196;6.838;2023-07-30T14:30:36;7.90;;;2.20;;
37701;SDS011;23548;51.196;6.838;2023-07-30T14:33:03;5.80;;;2.08;;
37701;SDS011;23548;51.196;6.838;2023-07-30T14:35:29;4.53;;;1.45;;
37701;SDS011;23548;51.196;6.838;2023-07-30T14:37:54;7.95;;;1.83;;
37701;SDS011;23548;51.196;6.838;2023-07-30T14:40:20;6.13;;;1.73;;
37701;SDS011;23548;51.196;6.838;2023-07-30T14:42:47;10.23;;;2.00;;
37701;SDS011;23548;51.196;6.838;2023-07-30T14:45:12;7.72;;;1.80;;
37701;SDS011;23548;51.196;6.838;2023-07-30T14:47:38;6.55;;;2.08;;